AirNav   ATP
 
 965 users online  

6WI1 Winch Airfield
Wisconsin Rapids, Wisconsin, USA

GOING TO WISCONSIN RAPIDS?


FAA INFORMATION EFFECTIVE 20 JULY 2017

Location

FAA Identifier: 6WI1
Lat/Long: 44-29-42.8610N / 089-54-45.4570W
44-29.714350N / 089-54.757617W
44.4952392 / -89.9126269
(estimated)
Elevation: 1120 ft. / 341 m (estimated)
Variation: 01E (1985)
From city: 6 miles NE of WISCONSIN RAPIDS, WI
Time zone: UTC -5 (UTC -6 during Standard Time)
Zip code: 54495

Airport Operations

Airport use: Private use. Permission required prior to landing
Activation date: 01/1990
Control tower: no
ARTCC: MINNEAPOLIS CENTER
FSS: GREEN BAY FLIGHT SERVICE STATION
Attendance: UNATNDD
Wind indicator: yes
Segmented circle: no

Airport Communications

WX ASOS at ISW (9 nm S): 126.575 (715-421-2120)
WX ASOS at MFI (15 nm NW): 121.575 (715-387-6516)
WX AWOS-3 at STE (17 nm E): 119.275 (715-344-5960)
WX AWOS-3 at CWA (20 nm NE): 127.45 (715-693-1116)

Nearby radio navigation aids

VOR radial/distance  VOR name  Freq  Var
STEr261/16.6STEVENS POINT VORTAC110.6001W
AUWr211/25.3WAUSAU VORTAC111.6002E

 
NDB name  Hdg/Dist  Freq  Var  ID
WISCONSIN RAPIDS339/8.521501WISW .. ... .--
CALIN113/11.126600EDU -.. ..-
NEPCO357/14.232601WEK . -.-
MARSHFIELD127/14.739100EMFI -- ..-. ..
NEILLSVILLE099/26.036801WVIQ ...- .. --.-
WAUPACA285/39.538201WPCZ .--. -.-. --..

Airport Services

Runway Information

Runway 9/27

Dimensions: 1400 x 80 ft. / 427 x 24 m
Surface: turf
RUNWAY 9  RUNWAY 27
Traffic pattern: leftleft

Airport Ownership and Management from official FAA records

Ownership: Privately-owned
Owner: DONALD WINCH
3813 CTY C
WISCONSIN RAPIDS, WI 54496
Phone 715-435-3644
Manager: DONALD WINCH
3813 CIY C
WISCONSIN RAPIDS, WI 54496
Phone 715-435-3644

Airport Operational Statistics

Aircraft based on the field: 1
Single engine airplanes: 1
    

Instrument Procedures

There are no published instrument procedures at 6WI1.

Some nearby airports with instrument procedures:

KISW - Alexander Field South Wood County Airport (9 nm S)
KMFI - Marshfield Municipal Airport (15 nm NW)
KSTE - Stevens Point Municipal Airport (17 nm E)
KCWA - Central Wisconsin Airport (20 nm NE)
KVIQ - Neillsville Municipal Airport (26 nm W)
 
Loc | Ops | Rwys | IFR | FBO | Links
Com | Nav | Svcs | Stats | Notes


 
Area around 6WI1 (Winch Airfield)
 
Road maps at: MapQuest Bing Google
 
Aerial photo
No photo
 
Sectional chart

 
Airport distance calculator
Flying to Winch Airfield? Find the distance to fly.

From to 6WI1

Sunrise and sunset
Times for 27-Jul-2017
 Local
(UTC-5)
 Zulu
(UTC)
Morning civil twilight05:0810:08
Sunrise05:4210:42
Sunset20:3001:30
Evening civil twilight21:0402:04

Current date and time
Zulu (UTC)  27-Jul-2017 23:45:54
Local (UTC-5)  27-Jul-2017 18:45:54
 
METAR
KISW 
8nm SE 
272254Z AUTO 10005KT 10SM FEW095 28/16 A3002 RMK AO2 SLP161 T02780156 $
KMFI 
14nm NW 
272254Z AUTO 05007KT 10SM BKN050 BKN100 27/14 A3001 RMK AO2 SLP158 T02670144 TSNO
KSTE 
17nm E 
272335Z AUTO 09003KT 10SM SCT100 25/15 A3002 RMK AO2 T02460146
KCWA 
19nm NE 
272147Z 06006KT 10SM SCT050 BKN060 BKN090 25/16 A3004
TAF
KCWA 
19nm NE 
271935Z 2720/2818 06007KT P6SM SCT045 TEMPO 2720/2723 BKN045 FM280000 04003KT P6SM BKN050 FM280900 03003KT P6SM SKC TEMPO 2809/2812 3SM BR FM281400 06007KT P6SM SCT035
NOTAMs
Click for the latest NOTAMs
NOTAMs are issued by the DoD/FAA and will open in a separate window not controlled by AirNav.

 

 
 

Would you like to see your business listed on this page?

 If your business provides an interesting product or service to pilots, flight crews, aircraft, or users of the Winch Airfield, you should consider listing it here.  To start the listing process, click on the button below
 
Add a business
 

Other Pages about Winch Airfield

Update a link
 
Copyright © AirNav, LLC. All rights reserved. Privacy Policy  Contact